Aeroporto :
LOGIN :

Iscrizione | Disclaimer

   EN    FR    IT 

 










Sommario :    VFR   VFR Marginale   IFR   IFR Intensivo   IFR Molto Intensivo
Visibilità : 
Base nubi : 
>= 8 km
>= 3000ft
5 / 8 km
1000 / 3000 ft
1500m / 5 km
500 / 1000 ft
800 / 1500m
200 / 500 ft
< 800m
< 200 ft
Simboli :   Temporali  Nebbia  Neve Forte  Precipitazioni Forti  Vento > 20 kt
SIGMETs :   Varie  Temporali  Ghiacco  Turbolenza  Onda orograficha  Ceneri Vulcaniche






- Altitudine del aeroporto : 1058 ft
- Codice IATA : SCN


EDDR - Saarbrücken

ULTIMO METAR :
  • 121920Z 30006KT CAVOK 19/11 Q1023 NOSIG

METARs OBSOLETI :
  • 121850Z 30008KT 9999 FEW046 21/12 Q1023 NOSIG
  • 121820Z 32007KT 290V350 9999 FEW042 21/12 Q1022 NOSIG
  • 121750Z 32007KT 280V360 9999 FEW041 21/13 Q1022 NOSIG
  • 121720Z 30010KT 270V330 9999 FEW040 22/14 Q1022 NOSIG
  • 121650Z 29011KT 9999 FEW040 21/13 Q1022 NOSIG
  • 121620Z 30010KT 270V330 9999 FEW040 22/14 Q1022 NOSIG

TAF TAF EDDR
Valido dal 12 a 18 ore il 13 a 18 ore UTC


121700Z 1218/1318 30010KT CAVOK
BECMG 1218/1221 34004KT
BECMG 1306/1308 04006KT



MetMap, La meteo Aeronautica in un colpo d'occhio ! - Copyright ORBIFLY Dicembre 2007 - Disclaimer

ORBIFLY MET'MAP TEAM :

Programmazione e sviluppo : Alexandra Zaïnal
Concezione : Baudouin d'Aumeries
Aiuto per la programmazione : Marc-Olivier Méhu
Supporto tecnico e logistico : Manuel Goepfert
Aiuto per la traduzione : Arnaldo La Scala

Contatto : metmap@orbifly.com




FONTI E CREDITI :

   NOAA